Alvarado, Minnesota
Current Conditions -  °F | °C
As of 2:53 PM on Thursday 23 Oct 2014 (Local Time) from KGFK Reporting Station
Scattered Clouds Scattered Clouds  
Wind Chill: 21°   Ceiling: Unl
Heat Index: 21°   Visibility: 10mi
Dew Point:   Wind: 13mph
Humidity: 29%   Direction: 230°SW
Pressure: 29.81"   Gusts: NA
Location:  48.19°N, 97°W
Report Text: KGFK 231953Z 23011KT 10SM SCT250 21/02 A2981 RMK AO2 SLP095 T02110022
Loading
Personal Weather Stations






























Interactive Weather Map
Tropical Storm Tracking
New forecast layout! Learn more

10-Day Weather Forecast

Advertisements
Track Severe Weather on mobile